Time;durP1;ratioP1;P1;durP2;ratioP2;P2;SDS_P1;SDS_P2;PMS_P1;PMS_P2;Temp;Humidity;BMP_temperature;BMP_pressure;BME280_temperature;BME280_humidity;BME280_pressure;Samples;Min_cycle;Max_cycle;Signal;HPM_P1;HPM_P2
2023/04/19 00:00:58;;;;;;;3.57;3.27;;;;;;;9.60;94.67;95853.25;4307964;32;20228;-61
2023/04/19 00:03:24;;;;;;;2.80;2.60;;;;;;;9.67;94.92;95846.87;4355555;32;20185;-61
2023/04/19 00:05:53;;;;;;;3.23;3.10;;;;;;;9.82;94.63;95849.41;4359273;32;20204;-61
2023/04/19 00:08:20;;;;;;;2.90;2.80;;;;;;;9.76;94.06;95846.03;4347468;32;20193;-61
2023/04/19 00:10:47;;;;;;;2.23;2.10;;;;;;;9.67;94.43;95844.22;4320281;32;20260;-61
2023/04/19 00:13:14;;;;;;;3.10;3.00;;;;;;;9.81;94.22;95847.81;4333818;32;20204;-61
2023/04/19 00:15:41;;;;;;;7.40;3.47;;;;;;;9.74;94.17;95842.06;4300733;32;20203;-61
2023/04/19 00:18:09;;;;;;;2.77;2.60;;;;;;;9.70;93.97;95830.44;4336427;32;20209;-61
2023/04/19 00:20:35;;;;;;;3.00;2.80;;;;;;;9.67;94.43;95833.63;4332814;32;20201;-61
2023/04/19 00:23:04;;;;;;;1.43;1.43;;;;;;;9.90;93.69;95832.94;4341908;32;20212;-61
2023/04/19 00:25:33;;;;;;;2.93;2.83;;;;;;;9.95;92.45;95832.91;4333113;32;20185;-61
2023/04/19 00:28:02;;;;;;;2.07;2.07;;;;;;;9.86;92.98;95832.69;4326980;32;20178;-61
2023/04/19 00:30:31;;;;;;;2.57;2.47;;;;;;;9.80;93.06;95839.09;4334013;32;20180;-61
2023/04/19 00:33:03;;;;;;;3.47;3.27;;;;;;;9.82;93.35;95829.00;4327026;32;20229;-61
2023/04/19 00:35:30;;;;;;;3.30;2.97;;;;;;;9.86;93.23;95835.34;4329071;32;20205;-61
2023/04/19 00:37:55;;;;;;;2.97;2.83;;;;;;;9.74;93.31;95828.81;4323384;32;20178;-61
2023/04/19 00:40:25;;;;;;;3.23;3.03;;;;;;;9.70;93.27;95830.44;4331806;32;20211;-61
2023/04/19 00:42:56;;;;;;;5.60;3.40;;;;;;;9.71;93.45;95826.72;4312064;32;20173;-61
2023/04/19 00:45:25;;;;;;;1.63;1.63;;;;;;;9.73;93.31;95821.94;4325485;32;20216;-61
2023/04/19 00:48:00;;;;;;;2.00;2.00;;;;;;;9.63;93.73;95820.91;4343095;32;20233;-61
2023/04/19 00:50:29;;;;;;;2.10;2.00;;;;;;;9.72;93.29;95817.69;4350313;32;20279;-61
2023/04/19 00:53:00;;;;;;;2.40;2.30;;;;;;;9.63;93.27;95820.91;4340929;32;20182;-61
2023/04/19 00:55:29;;;;;;;2.23;2.13;;;;;;;9.61;93.45;95819.59;4328908;32;20426;-61
2023/04/19 00:57:55;;;;;;;3.03;2.87;;;;;;;9.53;93.58;95810.41;4349923;32;20236;-61
2023/04/19 01:00:20;;;;;;;2.40;2.30;;;;;;;9.39;94.31;95812.06;4332907;32;20173;-61
2023/04/19 01:02:47;;;;;;;2.37;2.27;;;;;;;9.56;93.46;95806.41;4324083;33;20260;-61
2023/04/19 01:05:16;;;;;;;2.57;2.47;;;;;;;9.46;93.69;95812.56;4318343;33;20223;-61
2023/04/19 01:07:42;;;;;;;2.73;2.53;;;;;;;9.50;93.81;95810.16;4338891;32;20271;-61
2023/04/19 01:10:11;;;;;;;3.00;2.90;;;;;;;9.56;93.73;95804.53;4330296;32;20189;-61
2023/04/19 01:12:38;;;;;;;3.03;2.83;;;;;;;9.51;93.82;95803.78;4328650;32;20239;-61
2023/04/19 01:15:05;;;;;;;3.27;3.07;;;;;;;9.50;93.73;95808.28;4348934;32;20251;-61
2023/04/19 01:17:35;;;;;;;2.40;2.30;;;;;;;9.56;93.63;95807.19;4345947;32;20189;-61
2023/04/19 01:20:08;;;;;;;2.73;2.63;;;;;;;9.48;93.94;95799.03;4329321;32;20224;-61
2023/04/19 01:22:36;;;;;;;2.53;2.43;;;;;;;9.41;93.92;95794.03;4345011;32;20260;-61
2023/04/19 01:25:09;;;;;;;3.57;3.37;;;;;;;9.37;94.14;95798.28;4304207;32;20197;-61
2023/04/19 01:27:37;;;;;;;2.70;2.60;;;;;;;9.20;95.04;95792.56;4337950;32;20263;-62
2023/04/19 01:30:07;;;;;;;3.40;3.13;;;;;;;9.18;95.59;95789.41;4330817;32;20201;-61
2023/04/19 01:32:34;;;;;;;2.20;2.10;;;;;;;9.31;95.16;95783.53;4330691;32;20201;-61
2023/04/19 01:35:02;;;;;;;2.00;1.90;;;;;;;9.49;94.50;95784.72;4325627;32;20182;-61
2023/04/19 01:37:29;;;;;;;2.53;2.43;;;;;;;9.52;94.39;95790.28;4325280;32;20200;-61
2023/04/19 01:39:55;;;;;;;3.63;3.43;;;;;;;9.71;93.86;95784.31;4323481;32;20235;-61
2023/04/19 01:42:23;;;;;;;3.00;2.80;;;;;;;9.76;93.22;95773.69;4337743;32;20277;-64
2023/04/19 01:44:50;;;;;;;3.60;3.10;;;;;;;9.61;93.39;95788.63;4313972;32;20232;-61
2023/04/19 01:47:16;;;;;;;2.50;2.40;;;;;;;9.56;93.57;95775.41;4333070;32;20177;-61
2023/04/19 01:49:41;;;;;;;3.10;2.90;;;;;;;9.77;92.99;95780.59;4336029;32;20261;-61
2023/04/19 01:52:06;;;;;;;2.70;2.60;;;;;;;9.62;93.51;95779.59;4361438;32;20220;-61
2023/04/19 01:54:33;;;;;;;2.03;1.93;;;;;;;9.67;93.80;95772.69;4318194;32;20189;-61
2023/04/19 01:57:00;;;;;;;2.57;2.47;;;;;;;9.57;93.94;95774.34;4326279;32;20253;-61
2023/04/19 01:59:25;;;;;;;2.53;2.43;;;;;;;9.62;94.05;95773.50;4326149;32;20200;-61
2023/04/19 02:01:53;;;;;;;3.20;3.00;;;;;;;9.52;94.35;95769.09;4340960;32;20244;-61
2023/04/19 02:04:22;;;;;;;3.80;3.53;;;;;;;9.53;94.73;95772.53;4317805;32;20186;-61
2023/04/19 02:06:49;;;;;;;3.60;3.10;;;;;;;9.42;95.78;95773.66;4338484;32;20259;-61
2023/04/19 02:09:17;;;;;;;3.40;3.27;;;;;;;9.61;95.59;95769.28;4348447;32;20230;-61
2023/04/19 02:11:45;;;;;;;3.53;3.37;;;;;;;9.64;95.72;95771.37;4328813;32;20257;-61
2023/04/19 02:14:11;;;;;;;4.03;3.83;;;;;;;9.46;95.93;95764.88;4337320;32;20228;-61
2023/04/19 02:16:38;;;;;;;3.63;3.33;;;;;;;9.56;96.40;95767.44;4351015;32;20221;-61
2023/04/19 02:19:03;;;;;;;4.07;3.87;;;;;;;9.59;96.59;95766.13;4354626;32;20192;-61
2023/04/19 02:21:29;;;;;;;3.20;3.03;;;;;;;9.44;97.18;95758.28;4336160;32;20329;-61
2023/04/19 02:23:55;;;;;;;3.73;3.00;;;;;;;9.73;96.27;95755.69;4316417;32;20178;-62
2023/04/19 02:26:23;;;;;;;4.03;3.83;;;;;;;9.70;96.33;95748.31;4326899;32;20254;-61
2023/04/19 02:28:51;;;;;;;4.30;4.03;;;;;;;9.65;96.33;95749.91;4338563;32;20200;-61
2023/04/19 02:31:28;;;;;;;3.30;3.10;;;;;;;9.39;97.43;95753.81;4335290;32;20276;-61
2023/04/19 02:33:57;;;;;;;3.50;3.40;;;;;;;9.61;97.46;95742.78;4330234;32;20246;-61
2023/04/19 02:36:22;;;;;;;3.70;3.50;;;;;;;9.44;98.26;95745.03;4314550;32;20193;-61
2023/04/19 02:38:49;;;;;;;4.20;3.87;;;;;;;9.63;97.53;95738.00;4284194;33;20232;-61
2023/04/19 02:41:15;;;;;;;5.90;4.23;;;;;;;9.54;97.52;95739.69;4348175;32;20200;-61
2023/04/19 02:43:45;;;;;;;4.90;4.70;;;;;;;9.61;97.70;95738.28;4328332;32;20256;-61
2023/04/19 02:46:11;;;;;;;4.77;4.17;;;;;;;9.67;97.54;95733.75;4357266;32;20185;-61
2023/04/19 02:48:39;;;;;;;4.70;3.90;;;;;;;9.47;97.92;95734.69;4359654;32;20263;-61
2023/04/19 02:51:05;;;;;;;5.07;4.77;;;;;;;9.56;98.26;95733.03;4319665;32;20201;-60
2023/04/19 02:53:32;;;;;;;3.50;3.40;;;;;;;9.55;97.88;95736.75;4345464;32;20177;-60
2023/04/19 02:55:59;;;;;;;4.30;3.97;;;;;;;9.48;98.20;95730.97;4332035;32;20200;-60
2023/04/19 02:58:26;;;;;;;3.63;3.53;;;;;;;9.57;98.14;95731.97;4345179;32;20185;-60
2023/04/19 03:00:54;;;;;;;4.40;4.20;;;;;;;9.45;98.55;95728.88;4323934;32;20243;-60
2023/04/19 03:03:24;;;;;;;4.27;4.00;;;;;;;9.41;99.32;95735.00;4340350;32;20204;-60
2023/04/19 03:05:50;;;;;;;5.03;4.70;;;;;;;9.52;98.29;95728.56;4343178;32;20197;-60
2023/04/19 03:08:18;;;;;;;4.63;4.30;;;;;;;9.51;98.38;95724.34;4323482;32;20199;-60
2023/04/19 03:10:43;;;;;;;4.00;3.80;;;;;;;9.39;98.78;95724.69;4311620;32;20182;-60
2023/04/19 03:13:11;;;;;;;4.93;4.63;;;;;;;9.42;99.18;95721.47;4350838;32;20207;-60
2023/04/19 03:15:40;;;;;;;3.60;3.40;;;;;;;9.41;99.50;95721.75;4336664;32;20251;-60
2023/04/19 03:18:06;;;;;;;3.93;3.73;;;;;;;9.29;98.83;95717.59;4344436;32;20200;-60
2023/04/19 03:20:33;;;;;;;5.07;4.77;;;;;;;9.31;99.39;95719.97;4344920;32;20178;-60
2023/04/19 03:23:01;;;;;;;6.03;5.63;;;;;;;9.22;99.96;95717.13;4315517;32;20177;-60
2023/04/19 03:25:32;;;;;;;4.67;4.27;;;;;;;9.10;99.77;95707.94;4323801;32;20243;-60
2023/04/19 03:27:58;;;;;;;4.47;4.23;;;;;;;8.93;100.00;95716.25;4314860;32;20218;-60
2023/04/19 03:30:25;;;;;;;4.80;4.47;;;;;;;9.03;100.00;95710.87;4312261;32;20186;-60
2023/04/19 03:32:55;;;;;;;6.37;5.87;;;;;;;9.16;99.70;95701.53;4344632;32;20177;-60
2023/04/19 03:35:28;;;;;;;4.87;4.67;;;;;;;9.19;99.21;95700.97;4351099;32;20305;-60
2023/04/19 03:38:01;;;;;;;3.47;3.37;;;;;;;9.16;98.97;95696.22;4341648;32;20288;-60
2023/04/19 03:40:26;;;;;;;3.77;3.63;;;;;;;9.19;98.98;95707.06;4344557;32;20273;-60
2023/04/19 03:42:51;;;;;;;4.50;4.20;;;;;;;9.30;98.31;95705.16;4336039;32;20185;-60
2023/04/19 03:45:17;;;;;;;5.37;4.87;;;;;;;9.38;98.10;95696.63;4336292;32;20252;-60
2023/04/19 03:47:44;;;;;;;5.30;5.00;;;;;;;9.30;98.22;95700.66;4305155;32;20252;-60
2023/04/19 03:50:11;;;;;;;6.17;5.77;;;;;;;9.33;98.49;95693.22;4335652;32;20199;-60
2023/04/19 03:52:39;;;;;;;4.77;4.47;;;;;;;9.23;98.57;95694.09;4326568;32;20400;-61
2023/04/19 03:55:06;;;;;;;5.73;5.33;;;;;;;9.23;99.06;95688.78;4328528;32;20185;-60
2023/04/19 03:57:33;;;;;;;4.93;4.67;;;;;;;9.29;98.22;95691.12;4354065;32;20165;-60
2023/04/19 04:00:01;;;;;;;4.63;4.23;;;;;;;9.27;98.28;95695.91;4352346;32;20177;-60
2023/04/19 04:02:28;;;;;;;5.73;5.33;;;;;;;9.24;98.75;95690.38;4343017;32;20189;-60
2023/04/19 04:04:56;;;;;;;5.30;5.00;;;;;;;9.27;98.44;95684.53;4343237;32;20261;-59
2023/04/19 04:07:24;;;;;;;6.07;5.67;;;;;;;9.25;98.26;95695.37;4341163;32;20184;-59
2023/04/19 04:09:54;;;;;;;5.57;5.17;;;;;;;9.19;98.44;95690.41;4357633;32;20185;-60
2023/04/19 04:12:21;;;;;;;6.00;5.00;;;;;;;9.26;98.64;95693.53;4336081;32;20181;-60
2023/04/19 04:14:47;;;;;;;5.50;5.10;;;;;;;9.27;98.53;95695.91;4323558;32;20192;-60
2023/04/19 04:17:14;;;;;;;5.93;5.53;;;;;;;9.36;98.45;95701.38;4326143;32;20224;-60
2023/04/19 04:19:39;;;;;;;6.33;5.83;;;;;;;9.27;98.43;95698.56;4346984;32;20185;-60
2023/04/19 04:22:08;;;;;;;5.97;5.63;;;;;;;9.25;98.35;95697.25;4324483;32;20297;-60
2023/04/19 04:24:44;;;;;;;4.47;4.27;;;;;;;9.25;98.99;95697.25;4350413;32;20264;-60
2023/04/19 04:27:11;;;;;;;5.67;5.27;;;;;;;9.25;98.91;95698.03;4361025;32;20242;-60
2023/04/19 04:29:37;;;;;;;6.83;6.33;;;;;;;9.29;98.98;95699.06;4326927;32;20205;-60
2023/04/19 04:32:13;;;;;;;6.63;6.03;;;;;;;9.44;98.25;95698.16;4322497;32;20232;-60
2023/04/19 04:34:39;;;;;;;5.30;4.10;;;;;;;9.34;98.08;95703.56;4336765;32;20256;-60
2023/04/19 04:37:07;;;;;;;5.67;5.33;;;;;;;9.39;97.52;95703.50;4346419;32;20235;-60
2023/04/19 04:39:38;;;;;;;6.47;5.97;;;;;;;9.27;98.16;95698.56;4344688;32;20228;-60
2023/04/19 04:42:09;;;;;;;6.07;5.73;;;;;;;9.32;98.67;95700.38;4342438;32;20225;-61
2023/04/19 04:44:37;;;;;;;5.00;4.70;;;;;;;9.32;98.86;95700.38;4324294;33;20193;-60
2023/04/19 04:47:04;;;;;;;6.23;5.70;;;;;;;9.37;98.69;95692.38;4321733;32;20198;-60
2023/04/19 04:49:30;;;;;;;6.07;5.57;;;;;;;9.29;98.58;95701.72;4307459;32;20201;-60
2023/04/19 04:51:56;;;;;;;4.90;4.50;;;;;;;9.24;98.94;95701.75;4290297;33;20293;-60
2023/04/19 04:54:22;;;;;;;5.20;4.90;;;;;;;9.46;98.74;95700.53;4318001;33;20282;-60
2023/04/19 04:56:48;;;;;;;5.30;4.90;;;;;;;9.39;98.94;95695.56;4325747;33;20204;-60
2023/04/19 04:59:15;;;;;;;6.33;5.83;;;;;;;9.39;98.96;95695.56;4336534;32;20194;-60
2023/04/19 05:01:40;;;;;;;5.30;5.00;;;;;;;9.45;98.52;95699.75;4341274;32;20251;-60
2023/04/19 05:04:07;;;;;;;5.40;5.03;;;;;;;9.34;99.00;95698.25;4328763;33;20181;-59
2023/04/19 05:06:33;;;;;;;5.37;5.03;;;;;;;9.37;98.60;95700.31;4270703;33;20262;-59
2023/04/19 05:08:58;;;;;;;6.80;6.30;;;;;;;9.36;98.78;95693.44;4314239;33;20286;-59
2023/04/19 05:11:25;;;;;;;6.33;5.73;;;;;;;9.22;98.77;95687.19;4315852;33;20189;-59
2023/04/19 05:13:54;;;;;;;6.13;5.77;;;;;;;9.13;99.58;95684.38;4319417;33;20243;-59
2023/04/19 05:16:20;;;;;;;5.87;5.47;;;;;;;9.27;99.49;95687.19;4312028;32;20198;-59
2023/04/19 05:18:46;;;;;;;4.73;4.43;;;;;;;9.26;98.96;95682.94;4323740;33;20178;-59
2023/04/19 05:21:13;;;;;;;6.00;4.77;;;;;;;9.34;98.56;95689.53;4340475;32;20347;-58
2023/04/19 05:23:39;;;;;;;5.87;4.80;;;;;;;9.33;97.58;95696.69;4318969;33;20194;-59
2023/04/19 05:26:04;;;;;;;8.23;7.17;;;;;;;9.16;97.89;95697.03;4327809;32;20218;-59
2023/04/19 05:28:32;;;;;;;6.20;5.60;;;;;;;9.20;98.59;95686.69;4329917;32;20197;-59
2023/04/19 05:30:59;;;;;;;4.57;4.27;;;;;;;9.28;97.59;95692.19;4339099;32;20258;-59
2023/04/19 05:33:27;;;;;;;5.57;5.17;;;;;;;9.25;97.83;95689.31;4324072;32;20240;-59
2023/04/19 05:35:55;;;;;;;5.80;5.40;;;;;;;9.10;98.55;95689.41;4306292;32;20233;-60
2023/04/19 05:38:22;;;;;;;6.03;5.63;;;;;;;9.26;98.59;95682.94;4329126;33;20320;-59
2023/04/19 05:40:47;;;;;;;5.57;5.10;;;;;;;9.34;97.73;95687.66;4299803;33;20193;-59
2023/04/19 05:43:15;;;;;;;4.17;3.97;;;;;;;9.35;96.70;95686.59;4328770;32;20337;-59
2023/04/19 05:45:43;;;;;;;4.50;4.20;;;;;;;9.24;97.28;95683.22;4348659;32;20181;-59
2023/04/19 05:48:09;;;;;;;4.60;4.30;;;;;;;9.32;97.69;95683.72;4333289;32;20197;-59
2023/04/19 05:50:36;;;;;;;6.50;5.97;;;;;;;9.34;97.92;95681.56;4331198;32;20192;-59
2023/04/19 05:53:02;;;;;;;6.40;6.00;;;;;;;9.30;96.97;95678.69;4350661;32;20197;-58
2023/04/19 05:55:31;;;;;;;4.90;4.63;;;;;;;9.49;96.76;95679.59;4297337;32;20189;-60
2023/04/19 05:57:58;;;;;;;7.10;6.60;;;;;;;9.44;97.14;95687.56;4298180;32;20178;-60
2023/04/19 06:00:27;;;;;;;4.73;4.50;;;;;;;9.34;96.10;95687.66;4329771;32;20231;-60
2023/04/19 06:02:59;;;;;;;4.37;4.17;;;;;;;9.31;96.02;95682.91;4355795;32;20213;-61
2023/04/19 06:05:28;;;;;;;5.53;5.23;;;;;;;9.21;96.91;95683.75;4351291;32;20200;-60
2023/04/19 06:07:55;;;;;;;8.13;5.77;;;;;;;9.38;95.84;95682.59;4333903;32;20182;-61
2023/04/19 06:10:22;;;;;;;4.23;4.03;;;;;;;9.17;97.01;95684.59;4352456;32;20191;-60
2023/04/19 06:12:50;;;;;;;4.20;4.00;;;;;;;9.26;97.20;95683.75;4329955;32;20200;-60
2023/04/19 06:15:19;;;;;;;5.23;4.90;;;;;;;9.43;96.53;95679.91;4340602;32;20406;-60
2023/04/19 06:17:46;;;;;;;5.03;4.73;;;;;;;9.42;95.88;95683.62;4295531;32;20208;-60
2023/04/19 06:20:14;;;;;;;4.73;4.43;;;;;;;9.46;96.32;95685.44;4302716;32;20251;-60
2023/04/19 06:22:50;;;;;;;5.27;4.97;;;;;;;9.53;95.93;95685.13;4337956;32;20185;-60
2023/04/19 06:25:17;;;;;;;5.63;5.23;;;;;;;9.29;96.22;95688.47;4317776;32;20228;-60
2023/04/19 06:27:45;;;;;;;6.30;4.67;;;;;;;9.40;95.99;95685.75;4339767;32;20294;-59
2023/04/19 06:30:11;;;;;;;5.40;5.00;;;;;;;9.38;96.00;95685.22;4307388;32;20186;-59
2023/04/19 06:32:38;;;;;;;5.27;4.97;;;;;;;9.30;96.15;95687.41;4340006;32;20197;-60
2023/04/19 06:35:08;;;;;;;4.63;4.33;;;;;;;9.27;96.55;95681.88;4317531;32;20197;-60
2023/04/19 06:37:37;;;;;;;5.20;4.87;;;;;;;9.27;96.35;95687.19;4306752;33;20207;-60
2023/04/19 06:40:07;;;;;;;5.27;4.97;;;;;;;9.15;96.42;95673.47;4318932;32;20189;-60
2023/04/19 06:42:34;;;;;;;5.40;5.07;;;;;;;9.17;97.46;95677.44;4346342;32;20196;-59
2023/04/19 06:45:02;;;;;;;6.47;5.90;;;;;;;9.26;97.27;95675.78;4339977;32;20293;-60
2023/04/19 06:47:31;;;;;;;5.53;5.13;;;;;;;9.36;95.89;95674.13;4321984;32;20174;-59
2023/04/19 06:49:56;;;;;;;6.17;5.77;;;;;;;9.40;95.61;95678.59;4312771;32;20181;-59
2023/04/19 06:52:45;;;;;;;5.47;5.13;;;;;;;9.40;95.74;95675.16;4343235;32;20269;-59
2023/04/19 06:55:13;;;;;;;4.97;4.60;;;;;;;9.37;95.48;95678.34;4288458;33;20181;-59
2023/04/19 06:57:41;;;;;;;5.50;5.20;;;;;;;9.14;95.48;95671.94;4324275;32;20189;-60
2023/04/19 07:00:09;;;;;;;5.17;4.83;;;;;;;9.18;95.66;95672.94;4275986;32;20241;-59
2023/04/19 07:02:35;;;;;;;6.60;6.07;;;;;;;9.30;94.69;95670.75;4310491;32;20201;-60
2023/04/19 07:05:05;;;;;;;5.50;5.03;;;;;;;9.21;95.35;95672.37;4311951;33;20204;-61
2023/04/19 07:07:33;;;;;;;5.20;4.70;;;;;;;9.11;95.67;95673.25;4300290;32;20269;-61
2023/04/19 07:10:00;;;;;;;5.00;4.70;;;;;;;9.21;95.56;95673.19;4305259;33;20193;-61
2023/04/19 07:12:27;;;;;;;4.47;4.17;;;;;;;9.39;94.83;95669.06;4333546;32;20308;-60
2023/04/19 07:14:56;;;;;;;4.53;4.10;;;;;;;9.49;94.94;95670.88;4319085;32;20200;-61
2023/04/19 07:17:23;;;;;;;6.17;5.77;;;;;;;9.42;94.89;95673.03;4317419;32;20177;-59
2023/04/19 07:19:48;;;;;;;5.47;5.17;;;;;;;9.49;93.45;95669.00;4296531;33;20194;-60
2023/04/19 07:22:15;;;;;;;6.23;5.83;;;;;;;9.52;93.45;95671.09;4307319;33;20189;-60
2023/04/19 07:24:43;;;;;;;1.40;1.40;;;;;;;9.39;93.52;95671.72;4290828;33;20217;-59
2023/04/19 07:27:13;;;;;;;4.70;4.33;;;;;;;11.23;100.00;95658.00;4283236;33;20190;-59
2023/04/19 07:29:41;;;;;;;4.87;4.00;;;;;;;13.23;94.69;95654.84;4341720;32;20195;-59
2023/04/19 07:32:08;;;;;;;5.30;5.00;;;;;;;14.86;83.12;95648.75;4359519;32;20190;-58
2023/04/19 07:34:40;;;;;;;6.57;6.07;;;;;;;14.91;72.45;95657.41;4321451;32;20193;-58
2023/04/19 07:37:11;;;;;;;5.23;4.77;;;;;;;13.15;75.16;95658.16;4330158;32;20253;-60
2023/04/19 07:39:37;;;;;;;5.40;5.00;;;;;;;12.73;77.70;95658.25;4315431;32;20200;-59
2023/04/19 07:42:07;;;;;;;6.47;5.83;;;;;;;12.00;80.36;95655.72;4345098;32;20178;-61
2023/04/19 07:44:34;;;;;;;5.67;5.27;;;;;;;11.60;83.17;95654.53;4334901;32;20190;-60
2023/04/19 07:46:59;;;;;;;5.73;5.33;;;;;;;11.42;83.70;95656.13;4345247;32;20189;-60
2023/04/19 07:49:28;;;;;;;5.27;4.93;;;;;;;11.00;85.80;95654.38;4344664;32;20273;-61
2023/04/19 07:51:56;;;;;;;7.23;5.77;;;;;;;10.91;86.79;95651.56;4349164;32;20193;-61
2023/04/19 07:54:23;;;;;;;6.50;5.60;;;;;;;11.06;86.18;95649.75;4331922;32;20181;-61
2023/04/19 07:56:50;;;;;;;7.73;6.37;;;;;;;10.97;85.79;95644.31;4339898;32;20181;-62
2023/04/19 07:59:17;;;;;;;5.00;4.70;;;;;;;10.80;87.22;95644.84;4333884;32;20284;-60
2023/04/19 08:01:44;;;;;;;4.23;4.03;;;;;;;10.63;87.69;95644.50;4353160;32;20257;-60
2023/04/19 08:04:10;;;;;;;7.23;5.67;;;;;;;10.83;86.68;95638.94;4339892;32;20203;-61
2023/04/19 08:06:38;;;;;;;5.70;5.30;;;;;;;10.78;86.04;95640.87;4338233;32;20189;-64
2023/04/19 08:09:04;;;;;;;5.60;5.30;;;;;;;10.70;85.87;95639.66;4351597;32;20196;-61
2023/04/19 08:11:31;;;;;;;5.00;4.67;;;;;;;11.01;84.41;95632.06;4339622;32;20181;-62
2023/04/19 08:13:58;;;;;;;5.07;4.73;;;;;;;11.10;85.52;95640.16;4340119;32;20199;-60
2023/04/19 08:16:25;;;;;;;8.27;4.97;;;;;;;11.00;85.82;95635.78;4319241;32;20185;-61
2023/04/19 08:18:54;;;;;;;7.57;5.80;;;;;;;11.15;84.80;95635.56;4336088;32;20249;-63
2023/04/19 08:21:43;;;;;;;4.83;4.53;;;;;;;10.69;86.13;95638.06;4307350;32;20215;-61
2023/04/19 08:24:11;;;;;;;5.10;4.70;;;;;;;10.89;85.10;95640.44;4340595;32;20220;-64
2023/04/19 08:26:40;;;;;;;5.53;5.03;;;;;;;10.81;85.43;95638.41;4316202;32;20198;-60
2023/04/19 08:29:07;;;;;;;14.50;6.67;;;;;;;11.02;85.29;95631.75;4337754;32;20324;-61
2023/04/19 08:31:35;;;;;;;8.30;6.47;;;;;;;10.93;84.90;95632.69;4336589;32;20194;-60
2023/04/19 08:34:02;;;;;;;5.07;4.67;;;;;;;11.01;84.66;95627.50;4343036;32;20211;-61
2023/04/19 08:36:31;;;;;;;5.87;5.30;;;;;;;11.19;83.53;95620.63;4344500;32;20205;-62
2023/04/19 08:38:59;;;;;;;3.80;3.60;;;;;;;11.03;83.36;95625.37;4333712;32;20225;-62
2023/04/19 08:41:29;;;;;;;5.20;4.80;;;;;;;10.95;84.38;95620.72;4266634;32;20254;-59
2023/04/19 08:44:17;;;;;;;5.50;5.10;;;;;;;11.15;85.62;95627.59;4329028;32;20269;-60
2023/04/19 08:46:45;;;;;;;6.70;4.90;;;;;;;11.22;84.44;95622.69;4344592;32;20262;-62
2023/04/19 08:49:13;;;;;;;5.20;4.80;;;;;;;11.20;85.87;95618.78;4327814;32;20228;-59
2023/04/19 08:51:45;;;;;;;4.83;4.47;;;;;;;11.26;84.47;95620.25;4308874;32;20190;-59
2023/04/19 08:54:14;;;;;;;5.47;4.97;;;;;;;11.38;84.36;95620.59;4288951;33;20203;-60
2023/04/19 08:56:41;;;;;;;6.70;6.20;;;;;;;11.39;83.25;95614.22;4308350;33;20189;-59
2023/04/19 08:59:07;;;;;;;6.73;6.13;;;;;;;11.32;84.30;95613.78;4315715;33;20253;-58
2023/04/19 09:01:34;;;;;;;4.97;4.57;;;;;;;11.14;85.68;95618.06;4329135;32;20181;-59
2023/04/19 09:04:05;;;;;;;7.30;6.70;;;;;;;11.14;86.12;95611.94;4343031;32;20272;-59
2023/04/19 09:06:36;;;;;;;7.77;6.03;;;;;;;11.05;86.44;95603.06;4337681;32;20185;-58
2023/04/19 09:09:25;;;;;;;6.73;6.17;;;;;;;10.99;87.00;95602.34;4300009;33;20198;-58
2023/04/19 09:11:52;;;;;;;5.67;5.27;;;;;;;10.96;86.53;95601.06;4319517;32;20186;-59
2023/04/19 09:14:23;;;;;;;6.77;6.27;;;;;;;11.22;85.66;95598.03;4336361;32;20189;-58
2023/04/19 09:16:52;;;;;;;6.83;6.20;;;;;;;11.10;86.37;95602.97;4309373;33;20209;-58
2023/04/19 09:19:18;;;;;;;5.17;4.87;;;;;;;11.08;86.67;95597.97;4340378;32;20197;-58
2023/04/19 09:21:50;;;;;;;6.87;5.93;;;;;;;11.05;86.83;95595.09;4336192;32;20209;-58
2023/04/19 09:24:17;;;;;;;6.63;6.10;;;;;;;10.78;87.38;95598.41;4324634;32;20330;-61
2023/04/19 09:26:56;;;;;;;5.67;5.27;;;;;;;10.94;87.44;95589.94;4348951;32;20257;-61
2023/04/19 09:29:24;;;;;;;7.53;5.47;;;;;;;11.18;87.19;95584.53;4343191;32;20173;-61
2023/04/19 09:32:01;;;;;;;4.33;4.10;;;;;;;11.29;85.65;95583.28;4334230;32;20182;-61
2023/04/19 09:34:31;;;;;;;6.80;6.13;;;;;;;11.40;85.57;95580.47;4326532;32;20177;-59
2023/04/19 09:37:14;;;;;;;11.77;6.00;;;;;;;11.33;85.48;95578.19;4351947;32;20181;-59
2023/04/19 09:39:45;;;;;;;5.53;5.17;;;;;;;11.40;84.94;95575.94;4324970;32;20220;-58
2023/04/19 09:42:11;;;;;;;7.83;5.73;;;;;;;11.35;84.92;95568.84;4328580;32;20186;-57
2023/04/19 09:44:38;;;;;;;6.63;6.13;;;;;;;11.41;83.84;95563.44;4321208;32;20256;-58
2023/04/19 09:47:23;;;;;;;5.43;5.10;;;;;;;11.43;82.80;95559.41;4328882;32;20185;-59
2023/04/19 09:50:10;;;;;;;10.30;6.10;;;;;;;11.71;84.16;95558.37;4331335;32;20192;-58
2023/04/19 09:52:39;;;;;;;5.63;5.10;;;;;;;11.83;82.60;95557.94;4309261;32;20204;-57
2023/04/19 09:55:06;;;;;;;5.87;5.37;;;;;;;11.84;81.85;95556.06;4342385;32;20181;-59
2023/04/19 09:57:34;;;;;;;5.63;5.23;;;;;;;11.88;81.86;95551.72;4344591;32;20206;-58
2023/04/19 10:00:07;;;;;;;6.80;5.57;;;;;;;11.99;82.85;95542.47;4334297;32;20196;-59
2023/04/19 10:02:33;;;;;;;7.73;6.00;;;;;;;11.97;82.10;95555.25;4323265;32;20209;-57
2023/04/19 10:04:59;;;;;;;6.33;5.77;;;;;;;11.98;80.38;95544.34;4320555;32;20204;-60
2023/04/19 10:07:26;;;;;;;4.60;4.30;;;;;;;11.99;79.50;95542.47;4316802;32;20189;-60
2023/04/19 10:09:58;;;;;;;5.40;5.00;;;;;;;12.02;79.55;95536.56;4340107;32;20252;-59
2023/04/19 10:12:26;;;;;;;4.57;4.27;;;;;;;11.81;80.11;95530.84;4357043;32;20193;-61
2023/04/19 10:14:58;;;;;;;8.97;4.93;;;;;;;11.88;80.19;95533.09;4317013;32;20185;-58
2023/04/19 10:17:25;;;;;;;3.77;3.43;;;;;;;11.96;79.00;95529.75;4352260;32;20246;-58
2023/04/19 10:20:12;;;;;;;5.73;5.33;;;;;;;11.98;77.87;95535.56;4341283;32;20264;-58
2023/04/19 10:22:40;;;;;;;4.97;4.57;;;;;;;11.87;78.50;95529.66;4348165;32;20185;-61
2023/04/19 10:25:17;;;;;;;5.77;5.33;;;;;;;11.73;79.97;95533.38;4342652;32;20185;-61
2023/04/19 10:27:45;;;;;;;4.83;4.53;;;;;;;11.69;80.90;95520.66;4338413;32;20217;-60
2023/04/19 10:30:23;;;;;;;5.33;4.83;;;;;;;11.79;81.07;95521.59;4337331;32;20240;-62
2023/04/19 10:33:01;;;;;;;3.93;3.73;;;;;;;11.75;79.56;95515.25;4319841;32;20186;-61
2023/04/19 10:35:37;;;;;;;5.17;4.77;;;;;;;11.90;80.11;95512.31;4325758;32;20200;-62
2023/04/19 10:38:15;;;;;;;5.47;4.97;;;;;;;12.08;79.45;95508.75;4334428;32;20241;-62
2023/04/19 10:41:00;;;;;;;6.10;5.37;;;;;;;11.95;80.11;95505.03;4335145;32;20193;-62
2023/04/19 10:43:37;;;;;;;5.00;4.70;;;;;;;11.95;79.76;95498.94;4330934;32;20235;-60
2023/04/19 10:46:24;;;;;;;5.90;5.40;;;;;;;11.89;80.59;95506.22;4300444;32;20207;-60
2023/04/19 10:49:05;;;;;;;5.40;5.00;;;;;;;11.80;80.67;95496.59;4318093;32;20193;-60
2023/04/19 10:51:41;;;;;;;5.20;4.90;;;;;;;11.82;79.87;95492.56;4353460;32;20181;-60
2023/04/19 10:54:36;;;;;;;5.37;5.03;;;;;;;11.59;80.50;95499.62;4324071;32;20268;-60
2023/04/19 10:57:07;;;;;;;5.77;5.37;;;;;;;11.44;81.42;95494.56;4306671;32;20199;-60
2023/04/19 10:59:39;;;;;;;4.40;4.10;;;;;;;11.45;81.90;95482.06;4351047;32;20212;-60
2023/04/19 11:02:31;;;;;;;5.60;5.27;;;;;;;11.39;82.50;95484.06;4316703;32;20248;-58
2023/04/19 11:04:59;;;;;;;5.20;4.80;;;;;;;11.32;82.48;95481.00;4321730;32;20190;-59
2023/04/19 11:07:44;;;;;;;5.03;4.63;;;;;;;11.24;82.39;95479.78;4342863;32;20188;-60
2023/04/19 11:10:27;;;;;;;3.87;3.57;;;;;;;11.33;80.86;95478.03;4327485;32;20229;-59
2023/04/19 11:12:54;;;;;;;5.23;4.80;;;;;;;11.16;81.78;95474.37;4342116;32;20196;-59
2023/04/19 11:15:23;;;;;;;4.83;4.30;;;;;;;11.16;81.83;95480.47;4325125;32;20202;-64
2023/04/19 11:18:33;;;;;;;4.20;3.90;;;;;;;11.18;82.27;95469.56;4334119;32;20185;-61
2023/04/19 11:21:01;;;;;;;5.03;4.63;;;;;;;11.24;82.71;95469.16;4299440;32;20233;-59
2023/04/19 11:23:28;;;;;;;9.70;4.40;;;;;;;11.19;82.15;95466.63;4314221;32;20208;-61
2023/04/19 11:25:54;;;;;;;5.63;4.83;;;;;;;11.06;83.72;95471.88;4333024;32;20203;-62
2023/04/19 11:28:21;;;;;;;4.07;3.87;;;;;;;11.02;84.03;95467.16;4343149;32;20207;-60
2023/04/19 11:30:48;;;;;;;4.90;4.50;;;;;;;11.02;86.24;95467.16;4336989;32;20194;-59
2023/04/19 11:33:24;;;;;;;4.70;4.27;;;;;;;11.00;84.62;95453.41;4318717;32;20186;-58
2023/04/19 11:35:51;;;;;;;5.30;5.00;;;;;;;10.98;85.60;95455.56;4295281;32;20243;-59
2023/04/19 11:38:19;;;;;;;5.33;4.93;;;;;;;11.10;84.85;95456.97;4319497;32;20189;-59
2023/04/19 11:40:46;;;;;;;4.90;4.60;;;;;;;11.13;85.12;95456.38;4308137;32;20192;-59
2023/04/19 11:43:11;;;;;;;5.70;4.80;;;;;;;11.14;84.96;95455.28;4290457;33;20253;-61
2023/04/19 11:45:38;;;;;;;4.57;4.37;;;;;;;11.10;84.08;95443.69;4302608;33;20240;-60
2023/04/19 11:48:04;;;;;;;6.13;5.67;;;;;;;10.93;84.79;95455.66;4309135;32;20243;-62